Terminal Aerodrome Forecast
Issued by NWS

Home | Current Version | Previous Version | Graphics & Text | Print | Product List | Glossary On
Versions: 1 2 3 4 5 6 7 8 9 10 11 12 13 14 15 16 17 18 19 20 21 22 23 24
000
FTUS43 KBIS 300900 AAA
TAFMOT
TAF AMD
KMOT 300904Z 3009/3106 31008KT P6SM SCT007 SCT015
     FM301000 33012KT P6SM SCT007 BKN015 OVC022
      TEMPO 3010/3014 5SM BR OVC007
     FM301400 36010KT P6SM SCT008 OVC015
     FM301800 36011KT P6SM SCT025 BKN035
     FM310000 03006KT P6SM SCT035=

USA.gov is the U.S. government's official web portal to all federal, state and local government web resources and services.